createdAt,value
2017-02-13T00:00:04.851Z,44.65
2017-02-13T00:00:45.385Z,44.37
2017-02-13T00:01:25.910Z,44.18
2017-02-13T00:02:06.440Z,43.9
2017-02-13T00:02:46.987Z,44.27
2017-02-13T00:03:27.523Z,44.27
2017-02-13T00:04:08.052Z,44.46
2017-02-13T00:04:48.608Z,44.65
2017-02-13T00:05:29.131Z,44.56
2017-02-13T00:06:09.662Z,44.09
2017-02-13T00:06:50.202Z,44.46
2017-02-13T00:07:30.712Z,44.27
2017-02-13T00:08:11.235Z,44.46
2017-02-13T00:08:51.748Z,44.74
2017-02-13T00:09:32.285Z,44.93
2017-02-13T00:10:12.824Z,45.12
2017-02-13T00:10:53.351Z,45.2
2017-02-13T00:11:33.888Z,44.74
2017-02-13T00:12:14.436Z,44.74
2017-02-13T00:12:54.960Z,45.01
2017-02-13T00:13:35.490Z,44.91
2017-02-13T00:14:16.020Z,44.82
2017-02-13T00:14:56.542Z,44.82
2017-02-13T00:15:37.072Z,44.91
2017-02-13T00:16:17.587Z,45.29
2017-02-13T00:16:58.143Z,45.29
2017-02-13T00:17:38.666Z,45.29
2017-02-13T00:18:19.175Z,45.29
2017-02-13T00:18:59.712Z,45.39
2017-02-13T00:19:40.247Z,45.29
2017-02-13T00:20:20.786Z,46.04
2017-02-13T00:21:01.344Z,45.86
2017-02-13T00:21:41.870Z,45.86
2017-02-13T00:22:22.399Z,45.76
2017-02-13T00:23:02.960Z,45.67
2017-02-13T00:23:43.509Z,45.67
2017-02-13T00:24:24.041Z,45.67
2017-02-13T00:25:04.607Z,45.67
2017-02-13T00:25:45.104Z,45.86
2017-02-13T00:26:25.638Z,45.86
2017-02-13T00:27:06.164Z,46.04
2017-02-13T00:27:46.701Z,46.04
2017-02-13T00:28:27.225Z,45.95
2017-02-13T00:29:07.770Z,46.04
2017-02-13T00:29:48.305Z,46.14
2017-02-13T00:30:28.843Z,46.14
2017-02-13T00:31:09.374Z,46.14
2017-02-13T00:31:49.909Z,46.04
2017-02-13T00:32:30.462Z,45.76
2017-02-13T00:33:11.000Z,45.57
2017-02-13T00:33:51.521Z,45.86
2017-02-13T00:34:32.048Z,45.76
2017-02-13T00:35:12.612Z,46.04
2017-02-13T00:35:53.161Z,46.14
2017-02-13T00:36:33.701Z,46.14
2017-02-13T00:37:14.239Z,46.14
2017-02-13T00:37:54.768Z,46.33
2017-02-13T00:38:35.314Z,46.23
2017-02-13T00:39:15.876Z,46.52
2017-02-13T00:39:56.403Z,46.9
2017-02-13T00:40:36.947Z,46.52
2017-02-13T00:41:17.478Z,46.33
2017-02-13T00:41:57.992Z,46.33
2017-02-13T00:42:38.530Z,46.33
2017-02-13T00:43:19.040Z,46.23
2017-02-13T00:43:59.559Z,46.14
2017-02-13T00:44:40.081Z,46.33
2017-02-13T00:45:20.606Z,46.23
2017-02-13T00:46:01.207Z,46.71
2017-02-13T00:46:41.755Z,46.52
2017-02-13T00:47:22.285Z,46.42
2017-02-13T00:48:02.839Z,47.09
2017-02-13T00:48:43.376Z,46.9
2017-02-13T00:49:23.909Z,46.99
2017-02-13T00:50:04.441Z,46.99
2017-02-13T00:50:44.997Z,46.8
2017-02-13T00:51:25.531Z,47.18
2017-02-13T00:52:06.058Z,46.71
2017-02-13T00:52:46.591Z,46.71
2017-02-13T00:53:27.121Z,46.8
2017-02-13T00:54:07.654Z,46.9
2017-02-13T00:54:48.176Z,46.8
2017-02-13T00:55:28.706Z,47.37
2017-02-13T00:56:09.230Z,47.47
2017-02-13T00:56:49.764Z,47.47
2017-02-13T00:57:30.288Z,47.47
2017-02-13T00:58:10.817Z,47.47
2017-02-13T00:58:51.346Z,47.47
2017-02-13T00:59:31.884Z,47.37
2017-02-13T01:00:12.416Z,47.47
2017-02-13T01:00:52.947Z,47.56
2017-02-13T01:01:33.475Z,47.28
2017-02-13T01:02:14.023Z,47.47
2017-02-13T01:02:54.564Z,47.66
2017-02-13T01:03:35.088Z,47.37
2017-02-13T01:04:15.616Z,47.66
2017-02-13T01:04:56.148Z,47.85
2017-02-13T01:05:36.689Z,47.37
2017-02-13T01:06:17.213Z,47.56
2017-02-13T01:06:57.760Z,47.66
2017-02-13T01:07:38.267Z,47.56
2017-02-13T01:08:18.807Z,47.56
2017-02-13T01:08:59.332Z,48.03
2017-02-13T01:09:39.876Z,48.03
2017-02-13T01:10:20.414Z,47.94
2017-02-13T01:11:00.937Z,47.94
2017-02-13T01:11:41.452Z,47.66
2017-02-13T01:12:21.981Z,48.32
2017-02-13T01:13:02.503Z,47.94
2017-02-13T01:13:43.052Z,48.03
2017-02-13T01:14:23.560Z,48.03
2017-02-13T01:15:04.084Z,48.32
2017-02-13T01:15:44.601Z,48.41
2017-02-13T01:16:25.126Z,47.94
2017-02-13T01:17:05.649Z,48.03
2017-02-13T01:17:46.189Z,48.03
2017-02-13T01:18:26.709Z,47.94
2017-02-13T01:19:07.239Z,47.94
2017-02-13T01:19:47.766Z,48.03
2017-02-13T01:20:28.307Z,48.13
2017-02-13T01:21:08.850Z,48.03
2017-02-13T01:21:49.369Z,48.13
2017-02-13T01:22:29.942Z,48.69
2017-02-13T01:23:10.475Z,48.32
2017-02-13T01:23:51.013Z,48.03
2017-02-13T01:24:31.572Z,48.03
2017-02-13T01:25:12.088Z,48.13
2017-02-13T01:25:52.608Z,47.94
2017-02-13T01:26:33.144Z,48.03
2017-02-13T01:27:13.671Z,48.03
2017-02-13T01:27:54.188Z,48.32
2017-02-13T01:28:34.707Z,48.13
2017-02-13T01:29:15.233Z,48.03
2017-02-13T01:29:55.785Z,48.32
2017-02-13T01:30:36.323Z,48.13
2017-02-13T01:31:16.862Z,48.5
2017-02-13T01:31:57.396Z,48.69
2017-02-13T01:32:37.923Z,48.5
2017-02-13T01:33:18.449Z,48.76
2017-02-13T01:33:58.961Z,48.95
2017-02-13T01:34:39.485Z,48.76
2017-02-13T01:35:20.003Z,48.57
2017-02-13T01:36:00.531Z,48.57
2017-02-13T01:36:41.054Z,49.05
2017-02-13T01:37:21.567Z,48.95
2017-02-13T01:38:02.100Z,49.24
2017-02-13T01:38:42.633Z,49.43
2017-02-13T01:39:23.170Z,49.43
2017-02-13T01:40:03.700Z,49.52
2017-02-13T01:40:44.215Z,49.33
2017-02-13T01:41:24.746Z,49.71
2017-02-13T01:42:05.278Z,49.43
2017-02-13T01:42:45.808Z,49.16
2017-02-13T01:43:26.331Z,48.76
2017-02-13T01:44:06.855Z,49.05
2017-02-13T01:44:47.374Z,49.14
2017-02-13T01:45:27.895Z,48.67
2017-02-13T01:46:08.422Z,49.14
2017-02-13T01:46:48.942Z,49.52
2017-02-13T01:47:29.469Z,49.26
2017-02-13T01:48:09.981Z,49.62
2017-02-13T01:48:50.520Z,49.35
2017-02-13T01:49:31.074Z,49.43
2017-02-13T01:50:11.606Z,49.35
2017-02-13T01:50:52.131Z,49.35
2017-02-13T01:51:32.653Z,49.64
2017-02-13T01:52:13.187Z,48.97
2017-02-13T01:52:53.700Z,49.35
2017-02-13T01:53:37.139Z,49.07
2017-02-13T01:54:17.691Z,48.69
2017-02-13T01:54:58.212Z,49.16
2017-02-13T01:55:38.739Z,49.26
2017-02-13T01:56:19.264Z,48.79
2017-02-13T01:56:59.773Z,48.69
2017-02-13T01:57:40.289Z,48.88
2017-02-13T01:58:20.807Z,48.79
2017-02-13T01:59:01.331Z,48.5
2017-02-13T01:59:41.853Z,48.13
2017-02-13T02:00:22.377Z,47.94
2017-02-13T02:01:02.894Z,48.03
2017-02-13T02:01:43.433Z,47.56
2017-02-13T02:02:23.967Z,47.85
2017-02-13T02:03:04.495Z,47.47
2017-02-13T02:03:45.058Z,47.56
2017-02-13T02:04:25.569Z,47.47
2017-02-13T02:05:06.111Z,47.47
2017-02-13T02:05:46.658Z,47.37
2017-02-13T02:06:27.167Z,47.56
2017-02-13T02:07:07.704Z,47.66
2017-02-13T02:07:48.224Z,47.47
2017-02-13T02:08:28.772Z,47.28
2017-02-13T02:09:09.294Z,47.28
2017-02-13T02:09:49.811Z,47.18
2017-02-13T02:10:30.343Z,47.75
2017-02-13T02:11:10.862Z,47.37
2017-02-13T02:11:51.393Z,47.47
2017-02-13T02:12:31.914Z,47.66
2017-02-13T02:13:12.440Z,47.66
2017-02-13T02:13:52.973Z,47.28
2017-02-13T02:14:33.502Z,47.66
2017-02-13T02:15:14.044Z,47.37
2017-02-13T02:15:54.578Z,47.66
2017-02-13T02:16:35.116Z,47.56
2017-02-13T02:17:15.643Z,47.66
2017-02-13T02:17:56.175Z,47.66
2017-02-13T02:18:36.710Z,47.66
2017-02-13T02:19:17.241Z,47.66
2017-02-13T02:19:57.765Z,47.47
2017-02-13T02:20:38.297Z,47.47
2017-02-13T02:21:18.818Z,47.37
2017-02-13T02:21:59.363Z,47.37
2017-02-13T02:22:39.888Z,47.56
2017-02-13T02:23:20.403Z,47.47
2017-02-13T02:24:00.926Z,47.85
2017-02-13T02:24:41.444Z,47.56
2017-02-13T02:25:21.961Z,47.66
2017-02-13T02:26:02.486Z,47.94
2017-02-13T02:26:43.016Z,48.32
2017-02-13T02:27:23.566Z,48.32
2017-02-13T02:28:04.092Z,48.41
2017-02-13T02:28:44.612Z,48.32
2017-02-13T02:29:25.162Z,48.32
2017-02-13T02:30:05.725Z,48.03
2017-02-13T02:30:46.247Z,47.66
2017-02-13T02:31:26.774Z,47.85
2017-02-13T02:32:07.294Z,47.56
2017-02-13T02:32:47.825Z,47.56
2017-02-13T02:33:28.338Z,47.56
2017-02-13T02:34:08.876Z,47.94
2017-02-13T02:34:49.416Z,47.94
2017-02-13T02:35:29.942Z,47.75
2017-02-13T02:36:10.471Z,47.75
2017-02-13T02:36:50.985Z,47.94
2017-02-13T02:37:31.511Z,48.13
2017-02-13T02:38:12.081Z,48.41
2017-02-13T02:38:52.599Z,47.94
2017-02-13T02:39:33.123Z,47.66
2017-02-13T02:40:13.652Z,47.37
2017-02-13T02:40:54.171Z,47.56
2017-02-13T02:41:34.707Z,47.47
2017-02-13T02:42:15.225Z,47.28
2017-02-13T02:42:55.754Z,47.37
2017-02-13T02:43:36.280Z,47.47
2017-02-13T02:44:16.788Z,47.56
2017-02-13T02:44:57.309Z,47.85
2017-02-13T02:45:37.853Z,47.66
2017-02-13T02:46:18.385Z,47.47
2017-02-13T02:46:58.915Z,47.56
2017-02-13T02:47:39.443Z,47.56
2017-02-13T02:48:19.973Z,47.47
2017-02-13T02:49:00.489Z,48.03
2017-02-13T02:49:41.004Z,48.03
2017-02-13T02:50:21.526Z,47.94
2017-02-13T02:51:02.051Z,48.41
2017-02-13T02:51:42.608Z,48.22
2017-02-13T02:52:27.706Z,48.03
2017-02-13T02:53:08.270Z,48.32
2017-02-13T02:53:48.791Z,47.91
2017-02-13T02:54:31.452Z,48.2
2017-02-13T02:55:13.109Z,48.32
2017-02-13T02:55:53.646Z,48.2
2017-02-13T02:56:34.196Z,48.5
2017-02-13T02:57:14.727Z,48.57
2017-02-13T02:57:55.254Z,49.07
2017-02-13T02:58:35.775Z,48.41
2017-02-13T02:59:16.297Z,48.6
2017-02-13T02:59:56.828Z,48.6
2017-02-13T03:00:37.358Z,48.69
2017-02-13T03:01:17.878Z,48.22
2017-02-13T03:01:58.393Z,48.13
2017-02-13T03:02:38.936Z,48.22
2017-02-13T03:03:19.466Z,48.22
2017-02-13T03:03:59.991Z,47.94
2017-02-13T03:04:40.540Z,48.13
2017-02-13T03:05:21.063Z,48.41
2017-02-13T03:06:01.572Z,48.6
2017-02-13T03:06:42.116Z,48.69
2017-02-13T03:07:22.610Z,48.6
2017-02-13T03:08:03.118Z,48.6
2017-02-13T03:08:43.630Z,48.6
2017-02-13T03:09:24.141Z,48.41
2017-02-13T03:10:04.680Z,47.94
2017-02-13T03:10:45.218Z,48.22
2017-02-13T03:11:25.770Z,48.13
2017-02-13T03:12:06.291Z,47.94
2017-02-13T03:12:46.811Z,48.22
2017-02-13T03:13:27.353Z,48.13
2017-02-13T03:14:07.878Z,48.13
2017-02-13T03:14:48.403Z,48.03
2017-02-13T03:15:28.934Z,48.03
2017-02-13T03:16:09.466Z,48.32
2017-02-13T03:16:50.002Z,48.5
2017-02-13T03:17:30.547Z,48.41
2017-02-13T03:18:11.061Z,48.13
2017-02-13T03:18:51.593Z,48.22
2017-02-13T03:19:32.111Z,48.32
2017-02-13T03:20:12.634Z,47.94
2017-02-13T03:20:53.162Z,47.56
2017-02-13T03:21:33.690Z,47.47
2017-02-13T03:22:14.217Z,47.56
2017-02-13T03:22:54.751Z,47.66
2017-02-13T03:23:35.279Z,47.47
2017-02-13T03:24:15.799Z,47.47
2017-02-13T03:24:56.345Z,47.66
2017-02-13T03:25:36.865Z,47.56
2017-02-13T03:26:17.404Z,47.66
2017-02-13T03:26:57.916Z,47.66
2017-02-13T03:27:38.430Z,47.37
2017-02-13T03:28:18.948Z,47.37
2017-02-13T03:28:59.486Z,47.66
2017-02-13T03:29:40.004Z,47.28
2017-02-13T03:30:20.515Z,47.66
2017-02-13T03:31:01.040Z,47.66
2017-02-13T03:31:41.583Z,48.41
2017-02-13T03:32:22.100Z,47.94
2017-02-13T03:33:02.616Z,48.22
2017-02-13T03:33:43.141Z,48.03
2017-02-13T03:34:23.673Z,48.22
2017-02-13T03:35:04.212Z,48.79
2017-02-13T03:35:44.763Z,48.5
2017-02-13T03:36:25.278Z,47.85
2017-02-13T03:37:05.792Z,47.56
2017-02-13T03:37:46.310Z,47.47
2017-02-13T03:38:26.820Z,47.56
2017-02-13T03:39:07.365Z,47.75
2017-02-13T03:39:47.898Z,47.56
2017-02-13T03:40:28.455Z,47.56
2017-02-13T03:41:08.978Z,47.28
2017-02-13T03:41:49.502Z,47.37
2017-02-13T03:42:30.041Z,47.66
2017-02-13T03:43:10.607Z,47.56
2017-02-13T03:43:51.138Z,47.28
2017-02-13T03:44:31.664Z,47.09
2017-02-13T03:45:12.201Z,47.75
2017-02-13T03:45:52.727Z,47.66
2017-02-13T03:46:33.247Z,47.47
2017-02-13T03:47:13.761Z,47.85
2017-02-13T03:47:54.288Z,48.22
2017-02-13T03:48:34.828Z,48.03
2017-02-13T03:49:15.362Z,47.47
2017-02-13T03:49:55.911Z,47.66
2017-02-13T03:50:36.436Z,47.56
2017-02-13T03:51:16.958Z,47.66
2017-02-13T03:51:57.490Z,47.37
2017-02-13T03:52:38.017Z,47.66
2017-02-13T03:53:18.532Z,47.66
2017-02-13T03:53:59.062Z,47.66
2017-02-13T03:54:39.599Z,47.56
2017-02-13T03:55:20.117Z,47.56
2017-02-13T03:56:00.648Z,47.66
2017-02-13T03:56:41.172Z,47.28
2017-02-13T03:57:21.708Z,47.47
2017-02-13T03:58:02.249Z,47.18
2017-02-13T03:58:42.805Z,47.47
2017-02-13T03:59:23.323Z,47.56
2017-02-13T04:00:03.851Z,47.66
2017-02-13T04:00:44.366Z,47.56
2017-02-13T04:01:24.876Z,47.56
2017-02-13T04:02:05.402Z,47.56
2017-02-13T04:02:45.927Z,47.56
2017-02-13T04:03:26.472Z,47.37
2017-02-13T04:04:07.004Z,47.37
2017-02-13T04:04:47.534Z,47.37
2017-02-13T04:05:28.081Z,47.66
2017-02-13T04:06:08.665Z,47.66
2017-02-13T04:06:49.190Z,47.66
2017-02-13T04:07:29.721Z,47.94
2017-02-13T04:08:10.240Z,48.22
2017-02-13T04:08:50.761Z,48.1
2017-02-13T04:09:31.294Z,48.13
2017-02-13T04:10:11.817Z,48.03
2017-02-13T04:10:52.348Z,48.13
2017-02-13T04:11:32.880Z,48.41
2017-02-13T04:12:13.405Z,48.32
2017-02-13T04:12:54.064Z,48.32
2017-02-13T04:13:34.620Z,48.13
2017-02-13T04:14:15.138Z,47.94
2017-02-13T04:14:55.665Z,48.13
2017-02-13T04:15:36.185Z,48.6
2017-02-13T04:16:16.706Z,48.32
2017-02-13T04:16:57.230Z,48.6
2017-02-13T04:17:37.778Z,48.69
2017-02-13T04:18:18.306Z,48.69
2017-02-13T04:18:58.829Z,48.6
2017-02-13T04:19:39.363Z,48.41
2017-02-13T04:20:19.893Z,48.41
2017-02-13T04:21:00.404Z,47.94
2017-02-13T04:21:40.938Z,47.85
2017-02-13T04:22:21.465Z,48.22
2017-02-13T04:23:01.993Z,48.22
2017-02-13T04:23:42.516Z,47.94
2017-02-13T04:24:23.044Z,48.22
2017-02-13T04:25:03.586Z,48.22
2017-02-13T04:25:44.112Z,47.56
2017-02-13T04:26:24.663Z,48.22
2017-02-13T04:27:05.178Z,48.32
2017-02-13T04:27:45.693Z,47.91
2017-02-13T04:28:26.223Z,48.32
2017-02-13T04:29:06.748Z,48.41
2017-02-13T04:29:47.303Z,48.13
2017-02-13T04:30:27.861Z,48.03
2017-02-13T04:31:08.363Z,48.32
2017-02-13T04:31:48.874Z,48.41
2017-02-13T04:32:29.408Z,48.32
2017-02-13T04:33:09.934Z,48.22
2017-02-13T04:33:50.464Z,48.32
2017-02-13T04:34:30.984Z,48.32
2017-02-13T04:35:11.514Z,47.85
2017-02-13T04:35:52.044Z,48.32
2017-02-13T04:36:32.593Z,47.75
2017-02-13T04:37:13.213Z,47.56
2017-02-13T04:37:53.699Z,47.75
2017-02-13T04:38:34.223Z,47.37
2017-02-13T04:39:14.748Z,47.37
2017-02-13T04:39:55.261Z,47.56
2017-02-13T04:40:35.781Z,46.8
2017-02-13T04:41:16.297Z,47.09
2017-02-13T04:41:56.828Z,46.71
2017-02-13T04:42:37.357Z,46.71
2017-02-13T04:43:17.869Z,47.09
2017-02-13T04:43:58.399Z,47.37
2017-02-13T04:44:38.927Z,47.53
2017-02-13T04:45:19.456Z,47.91
2017-02-13T04:45:59.987Z,47.72
2017-02-13T04:46:40.534Z,47.82
2017-02-13T04:47:21.063Z,47.63
2017-02-13T04:48:01.657Z,48.39
2017-02-13T04:48:42.139Z,48.01
2017-02-13T04:49:22.672Z,48.01
2017-02-13T04:50:03.187Z,48.57
2017-02-13T04:50:43.747Z,48.67
2017-02-13T04:51:24.262Z,48.86
2017-02-13T04:52:04.790Z,48.95
2017-02-13T04:52:45.309Z,48.86
2017-02-13T04:53:25.836Z,49.14
2017-02-13T04:54:06.371Z,49.33
2017-02-13T04:54:46.894Z,48.67
2017-02-13T04:55:27.436Z,48.67
2017-02-13T04:56:07.988Z,48.67
2017-02-13T04:56:48.498Z,48.86
2017-02-13T04:57:29.043Z,48.95
2017-02-13T04:58:09.562Z,49.14
2017-02-13T04:58:50.090Z,49.24
2017-02-13T04:59:30.606Z,48.76
2017-02-13T05:00:11.126Z,48.67
2017-02-13T05:00:51.637Z,49.14
2017-02-13T05:01:32.177Z,49.52
2017-02-13T05:02:12.702Z,49.05
2017-02-13T05:02:53.241Z,49.24
2017-02-13T05:03:33.760Z,49.24
2017-02-13T05:04:14.280Z,49.62
2017-02-13T05:04:54.831Z,49.52
2017-02-13T05:05:35.357Z,49.52
2017-02-13T05:06:15.879Z,49.52
2017-02-13T05:06:56.409Z,49.43
2017-02-13T05:07:36.940Z,49.52
2017-02-13T05:08:17.457Z,49.05
2017-02-13T05:08:58.025Z,48.95
2017-02-13T05:09:38.566Z,49.14
2017-02-13T05:10:19.093Z,48.95
2017-02-13T05:10:59.649Z,49.24
2017-02-13T05:11:40.137Z,49.14
2017-02-13T05:12:20.680Z,49.62
2017-02-13T05:13:01.211Z,49.24
2017-02-13T05:13:41.726Z,49.52
2017-02-13T05:14:22.269Z,49.43
2017-02-13T05:15:02.794Z,49.05
2017-02-13T05:15:43.322Z,49.24
2017-02-13T05:16:23.855Z,49.24
2017-02-13T05:17:04.369Z,49.52
2017-02-13T05:17:44.903Z,49.43
2017-02-13T05:18:25.439Z,48.86
2017-02-13T05:19:05.993Z,49.14
2017-02-13T05:19:46.516Z,49.14
2017-02-13T05:20:27.056Z,49.24
2017-02-13T05:21:07.582Z,49.24
2017-02-13T05:21:48.104Z,48.95
2017-02-13T05:22:28.639Z,49.43
2017-02-13T05:23:09.181Z,49.14
2017-02-13T05:23:49.738Z,49.24
2017-02-13T05:24:30.252Z,49.43
2017-02-13T05:25:10.809Z,49.43
2017-02-13T05:25:51.329Z,49.52
2017-02-13T05:26:31.846Z,49.52
2017-02-13T05:27:12.385Z,49.43
2017-02-13T05:27:52.900Z,49.14
2017-02-13T05:28:33.432Z,49.14
2017-02-13T05:29:13.974Z,48.57
2017-02-13T05:29:54.514Z,49.24
2017-02-13T05:30:35.033Z,49.14
2017-02-13T05:31:15.551Z,49.14
2017-02-13T05:31:56.067Z,49.24
2017-02-13T05:32:36.583Z,49.14
2017-02-13T05:33:17.106Z,49.14
2017-02-13T05:33:57.663Z,49.33
2017-02-13T05:34:38.199Z,49.33
2017-02-13T05:35:18.729Z,49.62
2017-02-13T05:35:59.257Z,49.62
2017-02-13T05:36:39.775Z,49.43
2017-02-13T05:37:20.306Z,49.62
2017-02-13T05:38:00.839Z,49.52
2017-02-13T05:38:41.360Z,49.52
2017-02-13T05:39:21.882Z,49.14
2017-02-13T05:40:02.440Z,49.33
2017-02-13T05:40:42.957Z,49.33
2017-02-13T05:41:23.507Z,49.24
2017-02-13T05:42:04.031Z,49.14
2017-02-13T05:42:44.616Z,49.14
2017-02-13T05:43:25.187Z,49.62
2017-02-13T05:44:05.712Z,49.24
2017-02-13T05:44:46.231Z,49.14
2017-02-13T05:45:26.756Z,49.24
2017-02-13T05:46:07.290Z,49.05
2017-02-13T05:46:47.845Z,49.43
2017-02-13T05:47:28.383Z,49.43
2017-02-13T05:48:08.948Z,49.05
2017-02-13T05:48:49.481Z,49.14
2017-02-13T05:49:30.005Z,49.05
2017-02-13T05:50:10.546Z,49.14
2017-02-13T05:50:51.083Z,49.14
2017-02-13T05:51:31.588Z,49.71
2017-02-13T05:52:12.117Z,49.71
2017-02-13T05:52:52.701Z,49.62
2017-02-13T05:53:33.235Z,49.71
2017-02-13T05:54:13.753Z,49.43
2017-02-13T05:54:54.281Z,49.52
2017-02-13T05:55:34.811Z,49.71
2017-02-13T05:56:15.333Z,49.33
2017-02-13T05:56:55.855Z,49.71
2017-02-13T05:57:36.370Z,49.52
2017-02-13T05:58:16.888Z,49.71
2017-02-13T05:58:57.425Z,49.43
2017-02-13T05:59:37.953Z,49.8
2017-02-13T06:00:18.474Z,50.09
2017-02-13T06:00:58.998Z,50.27
2017-02-13T06:01:39.506Z,50.18
2017-02-13T06:02:20.041Z,50.56
2017-02-13T06:03:00.554Z,50.84
2017-02-13T06:03:41.078Z,50.46
2017-02-13T06:04:21.594Z,50.65
2017-02-13T06:05:02.117Z,50.65
2017-02-13T06:05:42.641Z,50.56
2017-02-13T06:06:23.175Z,50.37
2017-02-13T06:07:03.701Z,50.18
2017-02-13T06:07:44.234Z,50.27
2017-02-13T06:08:24.777Z,50.27
2017-02-13T06:09:05.289Z,50.27
2017-02-13T06:09:45.851Z,50.18
2017-02-13T06:10:26.376Z,50.27
2017-02-13T06:11:06.906Z,50.27
2017-02-13T06:11:47.447Z,50.18
2017-02-13T06:12:27.962Z,50.37
2017-02-13T06:13:08.472Z,50.27
2017-02-13T06:13:48.992Z,50.27
2017-02-13T06:14:29.507Z,50.27
2017-02-13T06:15:10.038Z,50.46
2017-02-13T06:15:50.567Z,50.56
2017-02-13T06:16:31.097Z,50.18
2017-02-13T06:17:11.621Z,50.37
2017-02-13T06:17:52.158Z,50.75
2017-02-13T06:18:32.683Z,50.56
2017-02-13T06:19:13.248Z,50.09
2017-02-13T06:19:53.782Z,50.37
2017-02-13T06:20:34.361Z,50.27
2017-02-13T06:21:14.897Z,50.65
2017-02-13T06:21:55.432Z,50.75
2017-02-13T06:22:35.955Z,50.46
2017-02-13T06:23:16.550Z,50.56
2017-02-13T06:23:57.077Z,50.65
2017-02-13T06:24:37.603Z,50.84
2017-02-13T06:25:18.118Z,50.65
2017-02-13T06:25:58.753Z,50.46
2017-02-13T06:26:39.278Z,50.75
2017-02-13T06:27:19.802Z,50.56
2017-02-13T06:28:00.323Z,50.65
2017-02-13T06:28:40.846Z,51.22
2017-02-13T06:29:21.385Z,51.22
2017-02-13T06:30:01.920Z,51.41
2017-02-13T06:30:42.431Z,50.46
2017-02-13T06:31:22.955Z,50.56
2017-02-13T06:32:03.491Z,50.84
2017-02-13T06:32:44.032Z,50.65
2017-02-13T06:33:24.559Z,50.84
2017-02-13T06:34:05.095Z,50.56
2017-02-13T06:34:45.623Z,50.75
2017-02-13T06:35:26.151Z,51.41
2017-02-13T06:36:06.673Z,50.84
2017-02-13T06:36:47.191Z,51.13
2017-02-13T06:37:27.711Z,51.69
2017-02-13T06:38:08.253Z,51.5
2017-02-13T06:38:48.763Z,51.41
2017-02-13T06:39:29.291Z,50.75
2017-02-13T06:40:09.812Z,51.41
2017-02-13T06:40:50.332Z,50.56
2017-02-13T06:41:30.841Z,50.94
2017-02-13T06:42:11.359Z,50.56
2017-02-13T06:42:51.898Z,51.6
2017-02-13T06:43:32.801Z,51.5
2017-02-13T06:44:13.374Z,50.65
2017-02-13T06:44:53.944Z,50.65
2017-02-13T06:45:34.475Z,50.37
2017-02-13T06:46:15.005Z,50.27
2017-02-13T06:46:55.529Z,50.46
2017-02-13T06:47:36.079Z,50.09
2017-02-13T06:48:16.607Z,50.46
2017-02-13T06:48:57.141Z,50.37
2017-02-13T06:49:37.658Z,50.65
2017-02-13T06:50:18.186Z,50.56
2017-02-13T06:50:58.719Z,50.75
2017-02-13T06:51:39.243Z,50.75
2017-02-13T06:52:19.771Z,50.46
2017-02-13T06:53:00.289Z,50.46
2017-02-13T06:53:40.864Z,50.75
2017-02-13T06:54:21.385Z,51.41
2017-02-13T06:55:01.906Z,50.65
2017-02-13T06:55:42.457Z,50.65
2017-02-13T06:56:22.975Z,50.56
2017-02-13T06:57:03.490Z,50.65
2017-02-13T06:57:44.025Z,50.84
2017-02-13T06:58:24.548Z,50.75
2017-02-13T06:59:05.108Z,51.5
2017-02-13T06:59:45.691Z,50.56
2017-02-13T07:00:26.270Z,50.46
2017-02-13T07:01:06.801Z,51.5
2017-02-13T07:01:47.316Z,51.22
2017-02-13T07:02:27.836Z,51.13
2017-02-13T07:03:08.377Z,51.03
2017-02-13T07:03:48.903Z,51.13
2017-02-13T07:04:29.465Z,50.75
2017-02-13T07:05:10.001Z,50.75
2017-02-13T07:05:50.520Z,50.65
2017-02-13T07:06:31.047Z,50.18
2017-02-13T07:07:11.580Z,50.27
2017-02-13T07:07:52.140Z,50.65
2017-02-13T07:08:32.661Z,50.56
2017-02-13T07:09:13.193Z,50.84
2017-02-13T07:09:53.719Z,50.65
2017-02-13T07:10:34.239Z,50.56
2017-02-13T07:11:14.772Z,50.46
2017-02-13T07:11:55.298Z,50.65
2017-02-13T07:12:35.885Z,50.75
2017-02-13T07:13:16.415Z,50.94
2017-02-13T07:13:56.927Z,51.32
2017-02-13T07:14:37.450Z,51.22
2017-02-13T07:15:17.968Z,51.5
2017-02-13T07:15:58.498Z,51.03
2017-02-13T07:16:39.031Z,51.13
2017-02-13T07:17:19.556Z,51.41
2017-02-13T07:18:00.092Z,51.41
2017-02-13T07:18:40.629Z,51.32
2017-02-13T07:19:21.187Z,51.41
2017-02-13T07:20:02.100Z,50.65
2017-02-13T07:20:42.422Z,50.84
2017-02-13T07:21:22.921Z,51.41
2017-02-13T07:22:03.452Z,50.56
2017-02-13T07:22:43.978Z,50.65
2017-02-13T07:23:24.507Z,50.65
2017-02-13T07:24:05.061Z,50.65
2017-02-13T07:24:45.591Z,50.75
2017-02-13T07:25:26.453Z,50.27
2017-02-13T07:26:06.998Z,50.18
2017-02-13T07:26:47.696Z,50.18
2017-02-13T07:27:28.259Z,50.37
2017-02-13T07:28:08.777Z,49.9
2017-02-13T07:28:49.608Z,50.18
2017-02-13T07:29:30.129Z,50.75
2017-02-13T07:30:10.662Z,50.65
2017-02-13T07:30:51.207Z,50.56
2017-02-13T07:31:31.757Z,50.65
2017-02-13T07:32:12.595Z,50.84
2017-02-13T07:32:53.171Z,51.41
2017-02-13T07:33:33.706Z,51.13
2017-02-13T07:34:14.232Z,50.75
2017-02-13T07:34:55.023Z,50.84
2017-02-13T07:35:35.666Z,51.5
2017-02-13T07:36:16.219Z,50.46
2017-02-13T07:36:56.729Z,50.56
2017-02-13T07:37:37.253Z,50.65
2017-02-13T07:38:17.781Z,50.56
2017-02-13T07:38:58.324Z,50.84
2017-02-13T07:39:39.023Z,50.56
2017-02-13T07:40:19.554Z,50.56
2017-02-13T07:41:00.103Z,50.37
2017-02-13T07:41:40.645Z,50.56
2017-02-13T07:42:21.190Z,50.46
2017-02-13T07:43:01.765Z,50.18
2017-02-13T07:43:42.275Z,50.27
2017-02-13T07:44:22.800Z,50.46
2017-02-13T07:45:03.340Z,50.27
2017-02-13T07:45:43.860Z,50.37
2017-02-13T07:46:24.383Z,50.18
2017-02-13T07:47:04.901Z,50.56
2017-02-13T07:47:45.426Z,49.99
2017-02-13T07:48:25.985Z,50.56
2017-02-13T07:49:06.510Z,50.09
2017-02-13T07:49:47.022Z,49.71
2017-02-13T07:50:27.556Z,49.9
2017-02-13T07:51:08.082Z,49.99
2017-02-13T07:51:48.622Z,49.8
2017-02-13T07:52:29.142Z,49.9
2017-02-13T07:53:09.660Z,49.9
2017-02-13T07:53:50.191Z,49.9
2017-02-13T07:54:30.711Z,49.8
2017-02-13T07:55:11.233Z,49.9
2017-02-13T07:55:51.746Z,49.8
2017-02-13T07:56:32.562Z,49.8
2017-02-13T07:57:13.131Z,49.62
2017-02-13T07:57:53.714Z,49.52
2017-02-13T07:58:34.239Z,49.45
2017-02-13T07:59:14.768Z,49.45
2017-02-13T07:59:55.315Z,49.54
2017-02-13T08:00:35.842Z,49.45
2017-02-13T08:01:16.479Z,49.64
2017-02-13T08:01:56.985Z,49.62
2017-02-13T08:02:37.508Z,49.64
2017-02-13T08:03:18.027Z,49.54
2017-02-13T08:03:58.561Z,49.73
2017-02-13T08:04:39.126Z,49.64
2017-02-13T08:05:19.660Z,49.16
2017-02-13T08:06:00.268Z,49.16
2017-02-13T08:06:40.783Z,49.07
2017-02-13T08:07:21.317Z,49.54
2017-02-13T08:08:01.849Z,49.54
2017-02-13T08:08:42.355Z,49.54
2017-02-13T08:09:22.869Z,49.54
2017-02-13T08:10:03.514Z,48.79
2017-02-13T08:10:44.044Z,48.79
2017-02-13T08:11:24.590Z,48.88
2017-02-13T08:12:05.108Z,48.79
2017-02-13T08:12:45.798Z,48.79
2017-02-13T08:13:26.285Z,48.69
2017-02-13T08:14:07.013Z,48.69
2017-02-13T08:14:47.446Z,49.26
2017-02-13T08:15:27.968Z,49.26
2017-02-13T08:16:08.485Z,48.69
2017-02-13T08:16:49.001Z,48.6
2017-02-13T08:17:29.555Z,48.03
2017-02-13T08:18:10.072Z,48.32
2017-02-13T08:18:50.615Z,48.22
2017-02-13T08:19:31.138Z,48.22
2017-02-13T08:20:11.662Z,48.32
2017-02-13T08:20:52.199Z,48.32
2017-02-13T08:21:32.715Z,48.32
2017-02-13T08:22:13.246Z,48.32
2017-02-13T08:22:53.781Z,48.03
2017-02-13T08:23:34.313Z,48.13
2017-02-13T08:24:14.841Z,48.03
2017-02-13T08:24:55.362Z,47.94
2017-02-13T08:25:35.888Z,48.32
2017-02-13T08:26:16.410Z,48.6
2017-02-13T08:26:56.939Z,47.94
2017-02-13T08:27:37.473Z,48.32
2017-02-13T08:28:17.999Z,47.47
2017-02-13T08:28:58.527Z,47.94
2017-02-13T08:29:39.070Z,48.13
2017-02-13T08:30:19.569Z,47.94
2017-02-13T08:31:00.491Z,48.5
2017-02-13T08:31:41.010Z,48.03
2017-02-13T08:32:21.540Z,48.25
2017-02-13T08:33:02.206Z,47.58
2017-02-13T08:33:42.730Z,47.39
2017-02-13T08:34:23.260Z,47.58
2017-02-13T08:35:03.789Z,47.3
2017-02-13T08:35:44.327Z,46.56
2017-02-13T08:36:24.860Z,45.81
2017-02-13T08:37:05.502Z,45.81
2017-02-13T08:37:46.017Z,45.43
2017-02-13T08:38:26.542Z,45.17
2017-02-13T08:39:07.093Z,44.98
2017-02-13T08:39:47.660Z,44.24
2017-02-13T08:40:28.186Z,43.39
2017-02-13T08:41:08.713Z,42.82
2017-02-13T08:41:49.283Z,41.78
2017-02-13T08:42:30.157Z,40.85
2017-02-13T08:43:10.717Z,40.76